sensor_id;sensor_type;location;lat;lon;timestamp;pressure;altitude;pressure_sealevel;temperature;humidity
72525;BME280;60547;48.502;8.996;2023-06-26T00:02:17;97859.72;;;18.37;67.93
72525;BME280;60547;48.502;8.996;2023-06-26T00:04:43;97860.47;;;18.37;67.65
72525;BME280;60547;48.502;8.996;2023-06-26T00:07:09;97860.91;;;18.30;68.12
72525;BME280;60547;48.502;8.996;2023-06-26T00:09:35;97861.88;;;18.27;68.18
72525;BME280;60547;48.502;8.996;2023-06-26T00:12:01;97867.91;;;18.20;68.45
72525;BME280;60547;48.502;8.996;2023-06-26T00:14:26;97862.78;;;18.19;68.28
72525;BME280;60547;48.502;8.996;2023-06-26T00:16:52;97864.03;;;18.18;68.23
72525;BME280;60547;48.502;8.996;2023-06-26T00:19:18;97878.41;;;18.20;68.46
72525;BME280;60547;48.502;8.996;2023-06-26T00:21:44;97869.66;;;18.18;68.61
72525;BME280;60547;48.502;8.996;2023-06-26T00:24:12;97875.69;;;18.11;68.51
72525;BME280;60547;48.502;8.996;2023-06-26T00:26:38;97873.56;;;18.05;68.72
72525;BME280;60547;48.502;8.996;2023-06-26T00:29:04;97872.03;;;18.04;69.81
72525;BME280;60547;48.502;8.996;2023-06-26T00:31:30;97878.63;;;18.01;69.80
72525;BME280;60547;48.502;8.996;2023-06-26T00:33:56;97880.19;;;18.02;69.89
72525;BME280;60547;48.502;8.996;2023-06-26T00:36:21;97871.56;;;17.91;70.32
72525;BME280;60547;48.502;8.996;2023-06-26T00:38:52;97866.41;;;17.90;70.76
72525;BME280;60547;48.502;8.996;2023-06-26T00:41:17;97866.03;;;17.82;70.62
72525;BME280;60547;48.502;8.996;2023-06-26T00:43:43;97871.84;;;17.79;70.67
72525;BME280;60547;48.502;8.996;2023-06-26T00:46:10;97874.09;;;17.74;70.57
72525;BME280;60547;48.502;8.996;2023-06-26T00:48:37;97876.91;;;17.74;70.64
72525;BME280;60547;48.502;8.996;2023-06-26T00:51:04;97877.97;;;17.77;69.83
72525;BME280;60547;48.502;8.996;2023-06-26T00:53:30;97875.53;;;17.85;69.79
72525;BME280;60547;48.502;8.996;2023-06-26T00:55:56;97867.97;;;17.76;69.30
72525;BME280;60547;48.502;8.996;2023-06-26T00:58:23;97875.94;;;17.78;69.54
72525;BME280;60547;48.502;8.996;2023-06-26T01:00:50;97862.31;;;17.61;69.73
72525;BME280;60547;48.502;8.996;2023-06-26T01:03:16;97872.59;;;17.64;69.78
72525;BME280;60547;48.502;8.996;2023-06-26T01:05:42;97877.66;;;17.60;69.86
72525;BME280;60547;48.502;8.996;2023-06-26T01:08:14;97866.97;;;17.64;69.78
72525;BME280;60547;48.502;8.996;2023-06-26T01:10:40;97868.72;;;17.62;69.54
72525;BME280;60547;48.502;8.996;2023-06-26T01:13:06;97871.25;;;17.60;69.45
72525;BME280;60547;48.502;8.996;2023-06-26T01:15:31;97863.09;;;17.47;70.14
72525;BME280;60547;48.502;8.996;2023-06-26T01:17:58;97861.72;;;17.42;70.62
72525;BME280;60547;48.502;8.996;2023-06-26T01:20:25;97867.25;;;17.37;70.46
72525;BME280;60547;48.502;8.996;2023-06-26T01:27:56;97863.25;;;17.29;70.71
72525;BME280;60547;48.502;8.996;2023-06-26T01:30:21;97858.97;;;17.19;70.71
72525;BME280;60547;48.502;8.996;2023-06-26T01:32:48;97869.34;;;17.13;71.43
72525;BME280;60547;48.502;8.996;2023-06-26T01:35:15;97861.75;;;17.04;71.20
72525;BME280;60547;48.502;8.996;2023-06-26T01:37:40;97858.19;;;17.03;71.40
72525;BME280;60547;48.502;8.996;2023-06-26T01:40:06;97860.22;;;17.03;71.50
72525;BME280;60547;48.502;8.996;2023-06-26T01:42:35;97844.56;;;16.87;71.74
72525;BME280;60547;48.502;8.996;2023-06-26T01:45:10;97850.56;;;16.80;71.69
72525;BME280;60547;48.502;8.996;2023-06-26T01:47:40;97856.47;;;16.82;72.10
72525;BME280;60547;48.502;8.996;2023-06-26T01:50:12;97850.13;;;16.72;72.26
72525;BME280;60547;48.502;8.996;2023-06-26T01:57:54;97854.72;;;16.61;72.94
72525;BME280;60547;48.502;8.996;2023-06-26T02:00:21;97855.06;;;16.54;72.95
72525;BME280;60547;48.502;8.996;2023-06-26T02:02:47;97849.03;;;16.46;72.88
72525;BME280;60547;48.502;8.996;2023-06-26T02:05:13;97849.88;;;16.37;73.12
72525;BME280;60547;48.502;8.996;2023-06-26T02:07:39;97848.78;;;16.35;73.30
72525;BME280;60547;48.502;8.996;2023-06-26T02:10:05;97851.91;;;16.37;73.29
72525;BME280;60547;48.502;8.996;2023-06-26T02:12:31;97858.66;;;16.30;73.38
72525;BME280;60547;48.502;8.996;2023-06-26T02:14:56;97861.34;;;16.25;73.39
72525;BME280;60547;48.502;8.996;2023-06-26T02:17:22;97856.50;;;16.25;73.71
72525;BME280;60547;48.502;8.996;2023-06-26T02:19:47;97867.38;;;16.32;73.35
72525;BME280;60547;48.502;8.996;2023-06-26T02:22:14;97868.16;;;16.33;73.52
72525;BME280;60547;48.502;8.996;2023-06-26T02:24:41;97864.88;;;16.34;73.11
72525;BME280;60547;48.502;8.996;2023-06-26T02:27:07;97860.19;;;16.31;72.87
72525;BME280;60547;48.502;8.996;2023-06-26T02:29:32;97862.41;;;16.27;72.67
72525;BME280;60547;48.502;8.996;2023-06-26T02:31:57;97853.56;;;16.20;73.48
72525;BME280;60547;48.502;8.996;2023-06-26T02:34:23;97865.75;;;16.17;73.29
72525;BME280;60547;48.502;8.996;2023-06-26T02:36:49;97865.13;;;16.12;73.68
72525;BME280;60547;48.502;8.996;2023-06-26T02:39:14;97860.00;;;16.11;73.85
72525;BME280;60547;48.502;8.996;2023-06-26T02:41:40;97871.34;;;16.17;74.10
72525;BME280;60547;48.502;8.996;2023-06-26T02:44:05;97872.91;;;16.18;73.92
72525;BME280;60547;48.502;8.996;2023-06-26T02:46:32;97850.34;;;16.03;74.39
72525;BME280;60547;48.502;8.996;2023-06-26T02:48:58;97862.53;;;16.00;74.51
72525;BME280;60547;48.502;8.996;2023-06-26T02:51:24;97866.94;;;15.92;74.08
72525;BME280;60547;48.502;8.996;2023-06-26T02:53:49;97866.31;;;15.88;74.58
72525;BME280;60547;48.502;8.996;2023-06-26T02:56:15;97860.41;;;15.86;74.70
72525;BME280;60547;48.502;8.996;2023-06-26T02:58:40;97863.81;;;15.90;74.62
72525;BME280;60547;48.502;8.996;2023-06-26T03:01:06;97870.03;;;15.94;74.79
72525;BME280;60547;48.502;8.996;2023-06-26T03:03:31;97867.72;;;15.92;75.25
72525;BME280;60547;48.502;8.996;2023-06-26T03:06:06;97869.91;;;15.88;75.16
72525;BME280;60547;48.502;8.996;2023-06-26T03:08:33;97866.66;;;15.80;75.61
72525;BME280;60547;48.502;8.996;2023-06-26T03:10:59;97878.19;;;15.82;75.55
72525;BME280;60547;48.502;8.996;2023-06-26T03:13:24;97868.22;;;15.81;76.09
72525;BME280;60547;48.502;8.996;2023-06-26T03:15:50;97867.59;;;15.77;76.32
72525;BME280;60547;48.502;8.996;2023-06-26T03:18:15;97867.59;;;15.77;75.91
72525;BME280;60547;48.502;8.996;2023-06-26T03:20:41;97864.97;;;15.74;75.82
72525;BME280;60547;48.502;8.996;2023-06-26T03:23:06;97870.28;;;15.72;75.79
72525;BME280;60547;48.502;8.996;2023-06-26T03:25:32;97860.16;;;15.65;75.59
72525;BME280;60547;48.502;8.996;2023-06-26T03:27:57;97864.53;;;15.66;75.55
72525;BME280;60547;48.502;8.996;2023-06-26T03:30:23;97867.16;;;15.70;74.98
72525;BME280;60547;48.502;8.996;2023-06-26T03:32:48;97867.47;;;15.72;75.47
72525;BME280;60547;48.502;8.996;2023-06-26T03:35:14;97873.09;;;15.72;75.31
72525;BME280;60547;48.502;8.996;2023-06-26T03:37:40;97866.72;;;15.62;75.90
72525;BME280;60547;48.502;8.996;2023-06-26T03:40:06;97873.09;;;15.63;76.07
72525;BME280;60547;48.502;8.996;2023-06-26T03:42:31;97865.16;;;15.61;76.54
72525;BME280;60547;48.502;8.996;2023-06-26T03:44:57;97861.88;;;15.63;76.37
72525;BME280;60547;48.502;8.996;2023-06-26T03:47:22;97877.78;;;15.66;76.35
72525;BME280;60547;48.502;8.996;2023-06-26T03:49:53;97870.00;;;15.61;76.78
72525;BME280;60547;48.502;8.996;2023-06-26T03:52:21;97867.34;;;15.57;76.86
72525;BME280;60547;48.502;8.996;2023-06-26T03:54:47;97891.66;;;15.60;77.05
72525;BME280;60547;48.502;8.996;2023-06-26T03:57:14;97877.31;;;15.58;77.12
72525;BME280;60547;48.502;8.996;2023-06-26T03:59:39;97879.78;;;15.56;77.12
72525;BME280;60547;48.502;8.996;2023-06-26T04:02:05;97880.44;;;15.60;77.36
72525;BME280;60547;48.502;8.996;2023-06-26T04:04:30;97875.28;;;15.59;77.16
72525;BME280;60547;48.502;8.996;2023-06-26T04:06:56;97873.25;;;15.50;77.68
72525;BME280;60547;48.502;8.996;2023-06-26T04:09:22;97881.81;;;15.56;77.33
72525;BME280;60547;48.502;8.996;2023-06-26T04:11:48;97884.50;;;15.59;77.34
72525;BME280;60547;48.502;8.996;2023-06-26T04:14:13;97887.13;;;15.63;77.93
72525;BME280;60547;48.502;8.996;2023-06-26T04:16:38;97877.31;;;15.58;77.74
72525;BME280;60547;48.502;8.996;2023-06-26T04:19:04;97895.53;;;15.63;77.85
72525;BME280;60547;48.502;8.996;2023-06-26T04:21:30;97877.31;;;15.58;77.92
72525;BME280;60547;48.502;8.996;2023-06-26T04:23:56;97887.59;;;15.61;77.58
72525;BME280;60547;48.502;8.996;2023-06-26T04:26:23;97879.78;;;15.56;77.61
72525;BME280;60547;48.502;8.996;2023-06-26T04:28:48;97880.44;;;15.60;78.10
72525;BME280;60547;48.502;8.996;2023-06-26T04:31:14;97891.97;;;15.62;77.97
72525;BME280;60547;48.502;8.996;2023-06-26T04:33:39;97878.56;;;15.57;78.06
72525;BME280;60547;48.502;8.996;2023-06-26T04:36:05;97881.06;;;15.64;78.49
72525;BME280;60547;48.502;8.996;2023-06-26T04:38:32;97881.50;;;15.72;78.14
72525;BME280;60547;48.502;8.996;2023-06-26T04:40:58;97878.69;;;15.72;78.11
72525;BME280;60547;48.502;8.996;2023-06-26T04:43:23;97873.72;;;15.67;78.05
72525;BME280;60547;48.502;8.996;2023-06-26T04:45:48;97861.72;;;15.66;78.70
72525;BME280;60547;48.502;8.996;2023-06-26T04:48:14;97869.16;;;15.78;78.18
72525;BME280;60547;48.502;8.996;2023-06-26T04:50:40;97871.94;;;15.88;78.12
72525;BME280;60547;48.502;8.996;2023-06-26T04:53:05;97870.22;;;15.90;77.65
72525;BME280;60547;48.502;8.996;2023-06-26T04:55:31;97873.59;;;16.03;77.38
72525;BME280;60547;48.502;8.996;2023-06-26T04:57:56;97881.81;;;16.16;76.68
72525;BME280;60547;48.502;8.996;2023-06-26T05:00:22;97870.88;;;16.18;76.61
72525;BME280;60547;48.502;8.996;2023-06-26T05:02:50;97870.06;;;16.27;76.27
72525;BME280;60547;48.502;8.996;2023-06-26T05:05:26;97878.72;;;16.38;76.10
72525;BME280;60547;48.502;8.996;2023-06-26T05:07:53;97878.25;;;16.39;75.90
72525;BME280;60547;48.502;8.996;2023-06-26T05:10:18;97875.56;;;16.45;75.31
72525;BME280;60547;48.502;8.996;2023-06-26T05:12:44;97873.78;;;16.57;74.05
72525;BME280;60547;48.502;8.996;2023-06-26T05:15:09;97875.31;;;16.67;74.17
72525;BME280;60547;48.502;8.996;2023-06-26T05:17:35;97865.63;;;16.68;73.76
72525;BME280;60547;48.502;8.996;2023-06-26T05:20:00;97878.53;;;16.74;73.21
72525;BME280;60547;48.502;8.996;2023-06-26T05:22:26;97862.56;;;16.81;73.40
72525;BME280;60547;48.502;8.996;2023-06-26T05:24:54;97868.59;;;16.88;73.61
72525;BME280;60547;48.502;8.996;2023-06-26T05:27:20;97877.56;;;17.01;73.11
72525;BME280;60547;48.502;8.996;2023-06-26T05:29:50;97877.78;;;17.13;73.06
72525;BME280;60547;48.502;8.996;2023-06-26T05:32:16;97878.56;;;17.13;72.99
72525;BME280;60547;48.502;8.996;2023-06-26T05:34:48;97875.84;;;17.19;73.13
72525;BME280;60547;48.502;8.996;2023-06-26T05:37:21;97885.56;;;17.32;73.33
72525;BME280;60547;48.502;8.996;2023-06-26T05:39:47;97875.31;;;17.44;73.08
72525;BME280;60547;48.502;8.996;2023-06-26T05:42:13;97870.56;;;17.50;72.80
72525;BME280;60547;48.502;8.996;2023-06-26T05:44:39;97874.53;;;17.58;72.94
72525;BME280;60547;48.502;8.996;2023-06-26T05:47:04;97881.56;;;17.78;73.55
72525;BME280;60547;48.502;8.996;2023-06-26T05:49:30;97877.00;;;17.80;72.40
72525;BME280;60547;48.502;8.996;2023-06-26T05:51:56;97869.13;;;17.99;72.13
72525;BME280;60547;48.502;8.996;2023-06-26T05:54:23;97873.47;;;18.15;71.16
72525;BME280;60547;48.502;8.996;2023-06-26T05:56:55;97873.50;;;18.35;69.70
72525;BME280;60547;48.502;8.996;2023-06-26T05:59:22;97869.88;;;18.49;69.41
72525;BME280;60547;48.502;8.996;2023-06-26T06:01:48;97858.66;;;18.69;68.28
72525;BME280;60547;48.502;8.996;2023-06-26T06:04:13;97866.41;;;18.95;66.95
72525;BME280;60547;48.502;8.996;2023-06-26T06:06:39;97870.41;;;19.09;65.77
72525;BME280;60547;48.502;8.996;2023-06-26T06:09:04;97864.75;;;19.29;64.91
72525;BME280;60547;48.502;8.996;2023-06-26T06:11:29;97866.63;;;19.38;64.53
72525;BME280;60547;48.502;8.996;2023-06-26T06:13:55;97856.22;;;19.49;64.15
72525;BME280;60547;48.502;8.996;2023-06-26T06:16:20;97862.84;;;19.66;64.24
72525;BME280;60547;48.502;8.996;2023-06-26T06:18:47;97855.03;;;19.82;63.36
72525;BME280;60547;48.502;8.996;2023-06-26T06:21:12;97863.66;;;20.04;62.55
72525;BME280;60547;48.502;8.996;2023-06-26T06:23:38;97852.50;;;20.21;62.24
72525;BME280;60547;48.502;8.996;2023-06-26T06:26:03;97859.53;;;20.37;62.01
72525;BME280;60547;48.502;8.996;2023-06-26T06:28:29;97849.88;;;20.49;60.87
72525;BME280;60547;48.502;8.996;2023-06-26T06:30:54;97858.94;;;20.58;60.61
72525;BME280;60547;48.502;8.996;2023-06-26T06:33:20;97867.34;;;21.01;59.98
72525;BME280;60547;48.502;8.996;2023-06-26T06:35:45;97851.56;;;21.37;59.59
72525;BME280;60547;48.502;8.996;2023-06-26T06:38:11;97846.72;;;21.99;58.54
72525;BME280;60547;48.502;8.996;2023-06-26T06:40:36;97847.72;;;22.52;55.80
72525;BME280;60547;48.502;8.996;2023-06-26T06:43:02;97836.78;;;22.78;55.59
72525;BME280;60547;48.502;8.996;2023-06-26T06:45:27;97846.22;;;23.14;54.52
72525;BME280;60547;48.502;8.996;2023-06-26T06:47:53;97840.97;;;23.30;53.63
72525;BME280;60547;48.502;8.996;2023-06-26T06:50:18;97843.97;;;23.54;53.14
72525;BME280;60547;48.502;8.996;2023-06-26T06:52:44;97836.72;;;23.53;52.18
72525;BME280;60547;48.502;8.996;2023-06-26T06:55:09;97856.84;;;23.61;53.05
72525;BME280;60547;48.502;8.996;2023-06-26T06:57:36;97852.44;;;23.95;52.09
72525;BME280;60547;48.502;8.996;2023-06-26T07:00:07;97852.00;;;24.15;50.82
72525;BME280;60547;48.502;8.996;2023-06-26T07:02:35;97843.78;;;24.12;50.10
72525;BME280;60547;48.502;8.996;2023-06-26T07:05:01;97841.41;;;24.16;50.64
72525;BME280;60547;48.502;8.996;2023-06-26T07:07:29;97837.59;;;24.38;50.67
72525;BME280;60547;48.502;8.996;2023-06-26T07:10:01;97841.00;;;24.36;50.44
72525;BME280;60547;48.502;8.996;2023-06-26T07:12:26;97826.47;;;24.40;49.90
72525;BME280;60547;48.502;8.996;2023-06-26T07:14:52;97839.16;;;24.63;49.43
72525;BME280;60547;48.502;8.996;2023-06-26T07:17:19;97842.41;;;24.73;48.01
72525;BME280;60547;48.502;8.996;2023-06-26T07:19:45;97837.59;;;24.87;48.51
72525;BME280;60547;48.502;8.996;2023-06-26T07:22:11;97843.44;;;25.19;47.48
72525;BME280;60547;48.502;8.996;2023-06-26T07:24:37;97832.81;;;25.19;46.59
72525;BME280;60547;48.502;8.996;2023-06-26T07:27:02;97832.13;;;25.32;47.17
72525;BME280;60547;48.502;8.996;2023-06-26T07:29:28;97820.47;;;25.49;46.70
72525;BME280;60547;48.502;8.996;2023-06-26T07:31:54;97826.94;;;25.68;46.05
72525;BME280;60547;48.502;8.996;2023-06-26T07:34:19;97835.25;;;25.85;45.23
72525;BME280;60547;48.502;8.996;2023-06-26T07:36:45;97826.19;;;25.99;45.32
72525;BME280;60547;48.502;8.996;2023-06-26T07:39:10;97842.47;;;26.18;45.37
72525;BME280;60547;48.502;8.996;2023-06-26T07:41:36;97834.03;;;26.25;43.57
72525;BME280;60547;48.502;8.996;2023-06-26T07:44:01;97840.66;;;26.33;43.76
72525;BME280;60547;48.502;8.996;2023-06-26T07:46:27;97844.75;;;26.51;43.50
72525;BME280;60547;48.502;8.996;2023-06-26T07:48:53;97842.78;;;26.59;42.88
72525;BME280;60547;48.502;8.996;2023-06-26T07:51:18;97849.16;;;26.79;43.58
72525;BME280;60547;48.502;8.996;2023-06-26T07:53:44;97838.63;;;26.74;42.49
72525;BME280;60547;48.502;8.996;2023-06-26T07:56:09;97828.72;;;26.75;42.80
72525;BME280;60547;48.502;8.996;2023-06-26T07:58:34;97814.34;;;26.80;42.03
72525;BME280;60547;48.502;8.996;2023-06-26T08:01:00;97824.00;;;26.90;42.52
72525;BME280;60547;48.502;8.996;2023-06-26T08:03:25;97824.66;;;27.10;41.78
72525;BME280;60547;48.502;8.996;2023-06-26T08:05:51;97828.41;;;27.18;41.10
72525;BME280;60547;48.502;8.996;2023-06-26T08:08:17;97820.03;;;27.20;41.15
72525;BME280;60547;48.502;8.996;2023-06-26T08:10:42;97824.53;;;27.28;41.42
72525;BME280;60547;48.502;8.996;2023-06-26T08:13:08;97815.19;;;27.28;40.46
72525;BME280;60547;48.502;8.996;2023-06-26T08:15:34;97809.34;;;27.33;40.59
72525;BME280;60547;48.502;8.996;2023-06-26T08:17:59;97813.69;;;27.48;40.06
72525;BME280;60547;48.502;8.996;2023-06-26T08:20:25;97809.72;;;27.64;41.87
72525;BME280;60547;48.502;8.996;2023-06-26T08:22:50;97804.84;;;27.72;40.17
72525;BME280;60547;48.502;8.996;2023-06-26T08:25:17;97812.16;;;27.81;40.12
72525;BME280;60547;48.502;8.996;2023-06-26T08:27:43;97794.78;;;27.99;40.16
72525;BME280;60547;48.502;8.996;2023-06-26T08:30:10;97797.00;;;28.14;39.58
72525;BME280;60547;48.502;8.996;2023-06-26T08:32:35;97793.53;;;28.29;39.55
72525;BME280;60547;48.502;8.996;2023-06-26T08:35:01;97798.91;;;28.33;38.37
72525;BME280;60547;48.502;8.996;2023-06-26T08:37:27;97805.19;;;28.59;38.67
72525;BME280;60547;48.502;8.996;2023-06-26T08:39:52;97798.72;;;28.59;38.29
72525;BME280;60547;48.502;8.996;2023-06-26T08:42:18;97799.94;;;28.71;37.68
72525;BME280;60547;48.502;8.996;2023-06-26T08:44:43;97791.75;;;28.75;38.03
72525;BME280;60547;48.502;8.996;2023-06-26T08:47:11;97801.25;;;28.99;37.60
72525;BME280;60547;48.502;8.996;2023-06-26T08:52:22;97792.16;;;29.15;36.18
72525;BME280;60547;48.502;8.996;2023-06-26T08:54:59;97797.91;;;29.23;35.47
72525;BME280;60547;48.502;8.996;2023-06-26T08:57:26;97785.50;;;29.28;35.08
72525;BME280;60547;48.502;8.996;2023-06-26T08:59:52;97783.59;;;29.31;35.16
72525;BME280;60547;48.502;8.996;2023-06-26T09:02:18;97794.53;;;29.40;34.33
72525;BME280;60547;48.502;8.996;2023-06-26T09:04:47;97776.41;;;29.45;35.79
72525;BME280;60547;48.502;8.996;2023-06-26T09:07:13;97782.34;;;29.47;34.09
72525;BME280;60547;48.502;8.996;2023-06-26T09:09:39;97775.50;;;29.65;34.66
72525;BME280;60547;48.502;8.996;2023-06-26T09:12:05;97790.84;;;29.83;35.10
72525;BME280;60547;48.502;8.996;2023-06-26T09:14:31;97779.16;;;29.81;34.64
72525;BME280;60547;48.502;8.996;2023-06-26T09:16:57;97782.44;;;29.93;34.41
72525;BME280;60547;48.502;8.996;2023-06-26T09:19:22;97780.53;;;30.03;33.98
72525;BME280;60547;48.502;8.996;2023-06-26T09:21:49;97785.13;;;30.06;33.56
72525;BME280;60547;48.502;8.996;2023-06-26T09:24:16;97786.28;;;30.18;32.69
72525;BME280;60547;48.502;8.996;2023-06-26T09:26:42;97770.78;;;30.21;33.76
72525;BME280;60547;48.502;8.996;2023-06-26T09:29:09;97787.78;;;30.49;33.67
72525;BME280;60547;48.502;8.996;2023-06-26T09:31:37;97778.03;;;30.52;33.40
72525;BME280;60547;48.502;8.996;2023-06-26T09:34:03;97770.09;;;30.91;33.21
72525;BME280;60547;48.502;8.996;2023-06-26T09:36:30;97778.09;;;31.08;32.32
72525;BME280;60547;48.502;8.996;2023-06-26T09:39:08;97768.88;;;31.09;31.81
72525;BME280;60547;48.502;8.996;2023-06-26T09:41:37;97785.00;;;31.05;31.90
72525;BME280;60547;48.502;8.996;2023-06-26T09:44:05;97780.34;;;30.62;32.43
72525;BME280;60547;48.502;8.996;2023-06-26T09:46:31;97767.91;;;30.36;32.40
72525;BME280;60547;48.502;8.996;2023-06-26T09:51:36;97765.56;;;30.50;33.36
72525;BME280;60547;48.502;8.996;2023-06-26T09:54:02;97752.72;;;30.74;31.64
72525;BME280;60547;48.502;8.996;2023-06-26T09:56:29;97747.16;;;30.76;32.10
72525;BME280;60547;48.502;8.996;2023-06-26T09:58:55;97759.50;;;31.01;29.78
72525;BME280;60547;48.502;8.996;2023-06-26T10:01:23;97766.19;;;31.19;29.87
72525;BME280;60547;48.502;8.996;2023-06-26T10:03:49;97759.84;;;31.53;29.10
72525;BME280;60547;48.502;8.996;2023-06-26T10:06:19;97756.81;;;31.51;28.61
72525;BME280;60547;48.502;8.996;2023-06-26T10:08:45;97763.53;;;31.46;28.26
72525;BME280;60547;48.502;8.996;2023-06-26T10:11:16;97759.34;;;30.99;29.79
72525;BME280;60547;48.502;8.996;2023-06-26T10:13:43;97765.69;;;30.90;29.89
72525;BME280;60547;48.502;8.996;2023-06-26T10:16:11;97773.25;;;30.63;29.82
72525;BME280;60547;48.502;8.996;2023-06-26T10:18:38;97758.28;;;30.72;30.61
72525;BME280;60547;48.502;8.996;2023-06-26T10:21:05;97769.41;;;30.60;30.25
72525;BME280;60547;48.502;8.996;2023-06-26T10:23:32;97774.59;;;30.31;30.99
72525;BME280;60547;48.502;8.996;2023-06-26T10:26:00;97762.38;;;30.08;30.64
72525;BME280;60547;48.502;8.996;2023-06-26T10:28:28;97774.00;;;29.95;31.87
72525;BME280;60547;48.502;8.996;2023-06-26T10:30:55;97768.25;;;30.48;30.69
72525;BME280;60547;48.502;8.996;2023-06-26T10:33:22;97767.72;;;31.12;30.01
72525;BME280;60547;48.502;8.996;2023-06-26T10:35:47;97761.22;;;31.04;31.55
72525;BME280;60547;48.502;8.996;2023-06-26T10:38:13;97775.44;;;30.95;31.08
72525;BME280;60547;48.502;8.996;2023-06-26T10:40:46;97784.16;;;30.57;31.81
72525;BME280;60547;48.502;8.996;2023-06-26T10:43:14;97781.09;;;30.70;31.62
72525;BME280;60547;48.502;8.996;2023-06-26T10:45:48;97777.69;;;31.11;30.56
72525;BME280;60547;48.502;8.996;2023-06-26T10:48:18;97776.13;;;31.58;31.08
72525;BME280;60547;48.502;8.996;2023-06-26T10:50:47;97789.81;;;31.50;30.29
72525;BME280;60547;48.502;8.996;2023-06-26T10:55:59;97788.38;;;31.99;30.78
72525;BME280;60547;48.502;8.996;2023-06-26T11:03:37;97791.16;;;31.49;31.76
72525;BME280;60547;48.502;8.996;2023-06-26T11:06:18;97794.00;;;31.89;31.32
72525;BME280;60547;48.502;8.996;2023-06-26T11:08:47;97787.31;;;32.36;30.88
72525;BME280;60547;48.502;8.996;2023-06-26T11:11:14;97796.47;;;32.42;31.34
72525;BME280;60547;48.502;8.996;2023-06-26T11:13:40;97791.53;;;32.35;31.21
72525;BME280;60547;48.502;8.996;2023-06-26T11:16:06;97787.84;;;32.42;31.15
72525;BME280;60547;48.502;8.996;2023-06-26T11:18:32;97794.59;;;32.37;31.71
72525;BME280;60547;48.502;8.996;2023-06-26T11:21:24;97794.84;;;32.32;32.62
72525;BME280;60547;48.502;8.996;2023-06-26T11:23:50;97797.69;;;32.57;31.89
72525;BME280;60547;48.502;8.996;2023-06-26T11:26:20;97806.47;;;32.84;31.58
72525;BME280;60547;48.502;8.996;2023-06-26T11:28:55;97808.56;;;32.24;31.34
72525;BME280;60547;48.502;8.996;2023-06-26T11:31:30;97815.84;;;32.25;31.41
72525;BME280;60547;48.502;8.996;2023-06-26T11:33:56;97812.72;;;32.30;31.85
72525;BME280;60547;48.502;8.996;2023-06-26T11:36:25;97808.25;;;32.37;31.96
72525;BME280;60547;48.502;8.996;2023-06-26T11:38:54;97821.06;;;32.43;31.78
72525;BME280;60547;48.502;8.996;2023-06-26T11:41:21;97820.72;;;32.39;31.50
72525;BME280;60547;48.502;8.996;2023-06-26T11:43:47;97819.88;;;32.47;31.68
72525;BME280;60547;48.502;8.996;2023-06-26T11:46:12;97825.16;;;32.08;31.64
72525;BME280;60547;48.502;8.996;2023-06-26T11:48:41;97821.94;;;32.71;32.03
72525;BME280;60547;48.502;8.996;2023-06-26T11:51:06;97826.03;;;31.93;31.79
72525;BME280;60547;48.502;8.996;2023-06-26T11:53:39;97826.13;;;31.38;32.95
72525;BME280;60547;48.502;8.996;2023-06-26T11:56:12;97826.56;;;31.11;33.41
72525;BME280;60547;48.502;8.996;2023-06-26T11:59:02;97821.88;;;30.53;34.09
72525;BME280;60547;48.502;8.996;2023-06-26T12:01:36;97827.47;;;30.59;34.48
72525;BME280;60547;48.502;8.996;2023-06-26T12:04:03;97832.22;;;30.48;34.34
72525;BME280;60547;48.502;8.996;2023-06-26T12:06:35;97823.81;;;30.35;34.99
72525;BME280;60547;48.502;8.996;2023-06-26T12:09:02;97827.22;;;30.87;34.31
72525;BME280;60547;48.502;8.996;2023-06-26T12:11:32;97825.25;;;31.60;32.95
72525;BME280;60547;48.502;8.996;2023-06-26T12:13:58;97827.28;;;32.07;32.22
72525;BME280;60547;48.502;8.996;2023-06-26T12:16:24;97827.75;;;32.21;31.46
72525;BME280;60547;48.502;8.996;2023-06-26T12:18:50;97832.63;;;32.11;31.93
72525;BME280;60547;48.502;8.996;2023-06-26T12:24:07;97819.63;;;32.77;31.85
72525;BME280;60547;48.502;8.996;2023-06-26T12:26:33;97820.31;;;32.85;31.91
72525;BME280;60547;48.502;8.996;2023-06-26T12:29:06;97820.47;;;33.22;30.73
72525;BME280;60547;48.502;8.996;2023-06-26T12:31:33;97812.63;;;33.49;30.27
72525;BME280;60547;48.502;8.996;2023-06-26T12:33:59;97816.03;;;33.55;30.84
72525;BME280;60547;48.502;8.996;2023-06-26T12:36:25;97824.72;;;33.03;32.22
72525;BME280;60547;48.502;8.996;2023-06-26T12:38:52;97822.72;;;32.29;33.16
72525;BME280;60547;48.502;8.996;2023-06-26T12:41:18;97811.31;;;32.81;32.70
72525;BME280;60547;48.502;8.996;2023-06-26T12:43:45;97826.16;;;32.95;32.74
72525;BME280;60547;48.502;8.996;2023-06-26T12:46:11;97822.88;;;32.73;32.77
72525;BME280;60547;48.502;8.996;2023-06-26T12:48:42;97822.00;;;32.88;32.71
72525;BME280;60547;48.502;8.996;2023-06-26T12:51:16;97818.44;;;33.15;32.49
72525;BME280;60547;48.502;8.996;2023-06-26T12:53:42;97814.84;;;33.24;32.48
72525;BME280;60547;48.502;8.996;2023-06-26T12:56:09;97811.81;;;32.87;32.35
72525;BME280;60547;48.502;8.996;2023-06-26T12:58:36;97807.50;;;32.96;32.15
72525;BME280;60547;48.502;8.996;2023-06-26T13:01:07;97817.50;;;32.78;32.27
72525;BME280;60547;48.502;8.996;2023-06-26T13:03:42;97813.56;;;32.65;32.93
72525;BME280;60547;48.502;8.996;2023-06-26T13:06:07;97801.81;;;32.88;32.71
72525;BME280;60547;48.502;8.996;2023-06-26T13:08:33;97804.34;;;33.36;32.59
72525;BME280;60547;48.502;8.996;2023-06-26T13:10:59;97791.19;;;33.25;32.60
72525;BME280;60547;48.502;8.996;2023-06-26T13:13:25;97797.22;;;32.85;33.72
72525;BME280;60547;48.502;8.996;2023-06-26T13:15:51;97801.03;;;32.88;32.52
72525;BME280;60547;48.502;8.996;2023-06-26T13:18:16;97800.44;;;33.06;32.53
72525;BME280;60547;48.502;8.996;2023-06-26T13:20:42;97800.13;;;32.85;33.33
72525;BME280;60547;48.502;8.996;2023-06-26T13:23:07;97809.13;;;32.47;32.73
72525;BME280;60547;48.502;8.996;2023-06-26T13:25:33;97810.00;;;32.74;33.63